Ocean Navigator — WSC2552 — position and weather

sailwx.info

Track history (hours):
 
Tides and Currents Weather Stations Pressure Air Temp Water Temp Dewpoint Dewpoint Depression Visibility Wind Speed Wind Dir Waves Ship Positions

Ocean Navigator

More information available from US FCC via Universal Licensing System and Coast Guard Vessel Documentation Center.

Last reported at 2014-Aug-24 16:04 UTC. Time now 2014-Aug-29 16:25 UTC.
Position N 51°25' W 128°04'.

Type: Tow > 200 m length. MMSI: 366358000.

Date/timePositionNaut miles runAvg speedWind from/ knotsBaromVisibWave heightAir tempDewpointWater temp
2014-Aug-24 16:04N 51°25' W 128°04'5 9.0
2014-Aug-24 15:33N 51°22' W 127°58'9 9.4
2014-Aug-24 14:33N 51°13' W 127°53'9 9.1
2014-Aug-24 13:33N 51°06' W 127°45'10 9.7
2014-Aug-24 12:33N 50°59' W 127°34'1010.1
2014-Aug-24 11:33N 50°53' W 127°21'10 9.4
2014-Aug-24 10:32N 50°47' W 127°10'18 8.9
2014-Aug-24 08:30N 50°37' W 126°46'8 8.2
2014-Aug-24 07:31N 50°31' W 126°37'9 9.3
2014-Aug-24 06:32N 50°30' W 126°23'82 8.6
2014-Aug-23 21:03N 49°42' W 124°39'148 8.4
2014-Aug-23 03:33N 47°44' W 122°26'8 8.4
2014-Aug-23 02:34N 47°36' W 122°22'3 1.9
2014-Aug-23 01:07N 47°33' W 122°21'0 0.0
2014-Aug-23 00:22N 47°33' W 122°21'1 1.1
2014-Aug-22 23:33N 47°34' W 122°21'6 4.1
2014-Aug-22 22:03N 47°40' W 122°24'1 2.4
2014-Aug-22 21:34N 47°39' W 122°22'1 0.0
2014-Aug-22 00:17N 47°40' W 122°23'1 1.1
2014-Aug-21 23:33N 47°40' W 122°24'4 3.7
2014-Aug-21 22:33N 47°36' W 122°23'7 7.1
2014-Aug-21 21:33N 47°43' W 122°28'9 8.6
2014-Aug-21 20:33N 47°51' W 122°29'9 9.3
2014-Aug-21 19:33N 47°59' W 122°36'1510.1
2014-Aug-21 18:05N 48°12' W 122°48'6 9.6
2014-Aug-21 17:29N 48°18' W 122°48'1010.6
2014-Aug-21 16:33N 48°27' W 122°44'1010.2
2014-Aug-21 15:33N 48°38' W 122°45'8 8.5
2014-Aug-21 14:33N 48°46' W 122°49'10 9.7
2014-Aug-21 13:33N 48°51' W 123°02'10 9.9
2014-Aug-21 12:33N 48°57' W 123°13'10 9.5
2014-Aug-21 11:33N 49°03' W 123°25'9 9.0
2014-Aug-21 10:33N 49°09' W 123°35'9 8.5
2014-Aug-21 09:33N 49°15' W 123°44'155 8.1
2014-Aug-20 14:23N 50°44' W 127°02'7 8.8
2014-Aug-20 13:33N 50°48' W 127°12'8 8.4
2014-Aug-20 12:33N 50°53' W 127°22'8 7.8
2014-Aug-20 11:33N 50°58' W 127°31'7 7.3
2014-Aug-20 10:33N 51°03' W 127°40'7 7.3
2014-Aug-20 09:33N 51°08' W 127°49'15 7.6
2014-Aug-20 07:32N 51°22' W 127°59'8 7.7
2014-Aug-20 06:31N 51°27' W 128°08'185 8.0
2014-Aug-19 07:33N 54°11' W 130°28'9 8.5
2014-Aug-19 06:33N 54°19' W 130°35'9 8.8
2014-Aug-19 05:33N 54°27' W 130°39'  
2014-Aug-15 15:33N 58°19' W 135°25'2 0.2
2014-Aug-15 05:26N 58°20' W 135°27'19 2.0
2014-Aug-14 20:00N 58°12' W 134°54'   140 / 101018.2 5.4 10.0 9.2
Track history (hours):
 
Tides and Currents Weather Stations Pressure Air Temp Water Temp Dewpoint Dewpoint Depression Visibility Wind Speed Wind Dir Waves Ship Positions

Ocean Navigator

More information available from US FCC via Universal Licensing System and Coast Guard Vessel Documentation Center.

Last reported at 2014-Aug-24 16:04 UTC. Time now 2014-Aug-29 16:25 UTC.
Position N 51°25' W 128°04'.

Type: Tow > 200 m length. MMSI: 366358000.

Date/timePositionNaut miles runAvg speedWind from/ knotsBaromVisibWave heightAir tempDewpointWater temp
2014-Aug-24 16:04N 51°25' W 128°04'5 9.0
2014-Aug-24 15:33N 51°22' W 127°58'9 9.4
2014-Aug-24 14:33N 51°13' W 127°53'9 9.1
2014-Aug-24 13:33N 51°06' W 127°45'10 9.7
2014-Aug-24 12:33N 50°59' W 127°34'1010.1
2014-Aug-24 11:33N 50°53' W 127°21'10 9.4
2014-Aug-24 10:32N 50°47' W 127°10'18 8.9
2014-Aug-24 08:30N 50°37' W 126°46'8 8.2
2014-Aug-24 07:31N 50°31' W 126°37'9 9.3
2014-Aug-24 06:32N 50°30' W 126°23'82 8.6
2014-Aug-23 21:03N 49°42' W 124°39'148 8.4
2014-Aug-23 03:33N 47°44' W 122°26'8 8.4
2014-Aug-23 02:34N 47°36' W 122°22'3 1.9
2014-Aug-23 01:07N 47°33' W 122°21'0 0.0
2014-Aug-23 00:22N 47°33' W 122°21'1 1.1
2014-Aug-22 23:33N 47°34' W 122°21'6 4.1
2014-Aug-22 22:03N 47°40' W 122°24'1 2.4
2014-Aug-22 21:34N 47°39' W 122°22'1 0.0
2014-Aug-22 00:17N 47°40' W 122°23'1 1.1
2014-Aug-21 23:33N 47°40' W 122°24'4 3.7
2014-Aug-21 22:33N 47°36' W 122°23'7 7.1
2014-Aug-21 21:33N 47°43' W 122°28'9 8.6
2014-Aug-21 20:33N 47°51' W 122°29'9 9.3
2014-Aug-21 19:33N 47°59' W 122°36'1510.1
2014-Aug-21 18:05N 48°12' W 122°48'6 9.6
2014-Aug-21 17:29N 48°18' W 122°48'1010.6
2014-Aug-21 16:33N 48°27' W 122°44'1010.2
2014-Aug-21 15:33N 48°38' W 122°45'8 8.5
2014-Aug-21 14:33N 48°46' W 122°49'10 9.7
2014-Aug-21 13:33N 48°51' W 123°02'10 9.9
2014-Aug-21 12:33N 48°57' W 123°13'10 9.5
2014-Aug-21 11:33N 49°03' W 123°25'9 9.0
2014-Aug-21 10:33N 49°09' W 123°35'9 8.5
2014-Aug-21 09:33N 49°15' W 123°44'155 8.1
2014-Aug-20 14:23N 50°44' W 127°02'7 8.8
2014-Aug-20 13:33N 50°48' W 127°12'8 8.4
2014-Aug-20 12:33N 50°53' W 127°22'8 7.8
2014-Aug-20 11:33N 50°58' W 127°31'7 7.3
2014-Aug-20 10:33N 51°03' W 127°40'7 7.3
2014-Aug-20 09:33N 51°08' W 127°49'15 7.6
2014-Aug-20 07:32N 51°22' W 127°59'8 7.7
2014-Aug-20 06:31N 51°27' W 128°08'185 8.0
2014-Aug-19 07:33N 54°11' W 130°28'9 8.5
2014-Aug-19 06:33N 54°19' W 130°35'9 8.8
2014-Aug-19 05:33N 54°27' W 130°39'  
2014-Aug-15 15:33N 58°19' W 135°25'2 0.2
2014-Aug-15 05:26N 58°20' W 135°27'19 2.0
2014-Aug-14 20:00N 58°12' W 134°54'   140 / 101018.2 5.4 10.0 9.2

Dump ship's entire track history